Morrisville, Virginia
Current Conditions -  °F | °C
As of 10:15 AM on Thursday 23 Oct 2014 (Local Time) from KCJR Reporting Station
Scattered Clouds Scattered Clouds  
Wind Chill: 61°   Ceiling: Unl
Heat Index: 61°   Visibility: 10mi
Dew Point: 45°   Wind: 12mph
Humidity: 55%   Direction: 330°NNW
Pressure: 29.94"   Gusts: 24mph
Location:  38.5752°N, 77.8213°W
Report Text: KCJR 231415Z AUTO 33010G21KT 10SM SCT075 16/07 A2994 RMK AO2
Loading
Personal Weather Stations






























Interactive Weather Map
Tropical Storm Tracking
New forecast layout! Learn more

10-Day Weather Forecast

Advertisements
Track Severe Weather on mobile